Shenandoah National Park, VA

3:45 AM EDT on July 27, 2016 (GMT -0400)
Lord Willing Dr. | | Change Station

Elev 499 ft 38.54 °N, 77.94 °W | Updated 7 seconds ago

Scattered Clouds
Scattered Clouds
75.0 °F
Feels Like 73 °F
N
0.0
Wind Variable Wind from WSW
Gusts 0.0 mph

Today
High -- | Low -- °F
--% Chance of Precip.
Yesterday
High -- | Low -- °F
Precip. -- in
Pressure 29.95 in
Visibility 10.0 miles
Clouds Scattered Clouds 11000 ft
Heat Index 73 °F
Dew Point 73 °F
Humidity 95%
Rainfall 0.00 in
Snow Depth Not available.
6:09 AM 8:26 PM
Last Quarter, 46% visible
METAR KCJR 270735Z AUTO 00000KT 10SM SCT110 24/24 A2995 RMK AO2 T02420235
Pressure 29.95 in
Visibility 10.0 miles
Clouds Scattered Clouds 11000 ft
Heat Index 73 °F
Dew Point 73 °F
Humidity 95%
Rainfall 0.00 in
Snow Depth Not available.
6:09 AM 8:26 PM
Last Quarter, 46% visible
METAR KCJR 270735Z AUTO 00000KT 10SM SCT110 24/24 A2995 RMK AO2 T02420235

10-Day Weather Forecast

Almanac

Astronomy

Jul. 27, 2016 Rise Set
Actual Time
Civil Twilight
Nautical Twilight
Astronomical Twilight
Moon
Length of Visible Light
Length of Day
Tomorrow will be .
, % of the Moon is Illuminated

Today's Extremes

State Highs State Lows

Community

WunderPhotos

Upload Photos

1,927,818 photos uploaded!

WunderBlog® & News

Nearby

Air Quality

  Air Quality AQ Index Pollutant
Not available.

Snow Depth

Station Depth Elevation

Earthquake Activity

City Distance Mag. Time & Date
Minimum magnitude displayed is 2.5.

Coastal Water Temperatures

Place Temperature

Stations

Nearby Weather Stations

Station Location Temp. Windchill Dew Point Humidity Wind Precip. Elev Updated Type
                   

Watches & Warnings

There are currently no watches in effect.